sensor_id;sensor_type;location;lat;lon;timestamp;P1;durP1;ratioP1;P2;durP2;ratioP2
1785;SDS011;890;48.158;11.540;2024-02-15T00:00:47;245.37;;;236.27;;
1785;SDS011;890;48.158;11.540;2024-02-15T00:03:13;234.50;;;225.83;;
1785;SDS011;890;48.158;11.540;2024-02-15T00:05:39;229.93;;;221.17;;
1785;SDS011;890;48.158;11.540;2024-02-15T00:08:05;315.03;;;302.43;;
1785;SDS011;890;48.158;11.540;2024-02-15T00:10:31;239.30;;;230.30;;
1785;SDS011;890;48.158;11.540;2024-02-15T00:12:57;205.03;;;197.63;;
1785;SDS011;890;48.158;11.540;2024-02-15T00:15:23;122.83;;;117.70;;
1785;SDS011;890;48.158;11.540;2024-02-15T00:17:49;54.57;;;51.77;;
1785;SDS011;890;48.158;11.540;2024-02-15T00:20:15;231.87;;;222.73;;
1785;SDS011;890;48.158;11.540;2024-02-15T00:22:43;245.57;;;234.53;;
1785;SDS011;890;48.158;11.540;2024-02-15T00:25:09;13.67;;;7.97;;
1785;SDS011;890;48.158;11.540;2024-02-15T00:27:36;18.30;;;7.43;;
1785;SDS011;890;48.158;11.540;2024-02-15T00:30:02;10.20;;;9.20;;
1785;SDS011;890;48.158;11.540;2024-02-15T00:32:30;15.03;;;13.50;;
1785;SDS011;890;48.158;11.540;2024-02-15T00:34:56;18.47;;;9.97;;
1785;SDS011;890;48.158;11.540;2024-02-15T00:37:22;10.67;;;5.20;;
1785;SDS011;890;48.158;11.540;2024-02-15T00:39:47;17.23;;;8.30;;
1785;SDS011;890;48.158;11.540;2024-02-15T00:42:13;13.60;;;10.90;;
1785;SDS011;890;48.158;11.540;2024-02-15T00:44:40;12.07;;;10.70;;
1785;SDS011;890;48.158;11.540;2024-02-15T00:47:07;12.93;;;7.23;;
1785;SDS011;890;48.158;11.540;2024-02-15T00:49:34;30.67;;;28.10;;
1785;SDS011;890;48.158;11.540;2024-02-15T00:52:01;28.43;;;26.97;;
1785;SDS011;890;48.158;11.540;2024-02-15T00:54:26;48.53;;;45.87;;
1785;SDS011;890;48.158;11.540;2024-02-15T00:56:52;16.33;;;15.03;;
1785;SDS011;890;48.158;11.540;2024-02-15T00:59:17;6.03;;;3.23;;
1785;SDS011;890;48.158;11.540;2024-02-15T01:01:43;11.33;;;7.10;;
1785;SDS011;890;48.158;11.540;2024-02-15T01:04:10;63.87;;;60.70;;
1785;SDS011;890;48.158;11.540;2024-02-15T01:06:35;171.57;;;164.67;;
1785;SDS011;890;48.158;11.540;2024-02-15T01:09:01;176.63;;;168.73;;
1785;SDS011;890;48.158;11.540;2024-02-15T01:11:28;316.03;;;304.03;;
1785;SDS011;890;48.158;11.540;2024-02-15T01:13:57;432.33;;;414.00;;
1785;SDS011;890;48.158;11.540;2024-02-15T01:16:23;403.53;;;387.20;;
1785;SDS011;890;48.158;11.540;2024-02-15T01:18:49;488.30;;;467.03;;
1785;SDS011;890;48.158;11.540;2024-02-15T01:21:15;596.40;;;570.83;;
1785;SDS011;890;48.158;11.540;2024-02-15T01:23:42;430.17;;;412.80;;
1785;SDS011;890;48.158;11.540;2024-02-15T01:26:07;477.60;;;457.40;;
1785;SDS011;890;48.158;11.540;2024-02-15T01:28:33;528.83;;;507.20;;
1785;SDS011;890;48.158;11.540;2024-02-15T01:30:59;459.03;;;441.10;;
1785;SDS011;890;48.158;11.540;2024-02-15T01:33:25;361.07;;;347.13;;
1785;SDS011;890;48.158;11.540;2024-02-15T01:35:51;518.20;;;496.90;;
1785;SDS011;890;48.158;11.540;2024-02-15T01:38:17;523.87;;;502.73;;
1785;SDS011;890;48.158;11.540;2024-02-15T01:40:43;444.83;;;426.77;;
1785;SDS011;890;48.158;11.540;2024-02-15T01:43:08;442.80;;;424.80;;
1785;SDS011;890;48.158;11.540;2024-02-15T01:45:34;529.00;;;507.13;;
1785;SDS011;890;48.158;11.540;2024-02-15T01:48:01;330.80;;;317.73;;
1785;SDS011;890;48.158;11.540;2024-02-15T01:50:28;449.43;;;431.17;;
1785;SDS011;890;48.158;11.540;2024-02-15T01:52:57;475.77;;;455.53;;
1785;SDS011;890;48.158;11.540;2024-02-15T01:55:24;530.47;;;509.10;;
1785;SDS011;890;48.158;11.540;2024-02-15T01:57:50;588.77;;;563.37;;
1785;SDS011;890;48.158;11.540;2024-02-15T02:00:17;520.83;;;497.87;;
1785;SDS011;890;48.158;11.540;2024-02-15T02:02:44;477.07;;;457.87;;
1785;SDS011;890;48.158;11.540;2024-02-15T02:05:10;449.43;;;430.13;;
1785;SDS011;890;48.158;11.540;2024-02-15T02:07:39;457.77;;;438.57;;
1785;SDS011;890;48.158;11.540;2024-02-15T02:10:05;562.83;;;539.63;;
1785;SDS011;890;48.158;11.540;2024-02-15T02:12:31;622.07;;;596.13;;
1785;SDS011;890;48.158;11.540;2024-02-15T02:14:57;728.13;;;697.03;;
1785;SDS011;890;48.158;11.540;2024-02-15T02:17:24;736.83;;;705.87;;
1785;SDS011;890;48.158;11.540;2024-02-15T02:19:49;655.57;;;628.57;;
1785;SDS011;890;48.158;11.540;2024-02-15T02:22:15;528.90;;;507.10;;
1785;SDS011;890;48.158;11.540;2024-02-15T02:27:23;604.47;;;579.63;;
1785;SDS011;890;48.158;11.540;2024-02-15T02:29:52;517.93;;;496.17;;
1785;SDS011;890;48.158;11.540;2024-02-15T02:32:18;528.67;;;507.47;;
1785;SDS011;890;48.158;11.540;2024-02-15T02:34:43;511.70;;;490.70;;
1785;SDS011;890;48.158;11.540;2024-02-15T02:37:09;512.30;;;491.90;;
1785;SDS011;890;48.158;11.540;2024-02-15T02:39:35;719.73;;;689.40;;
1785;SDS011;890;48.158;11.540;2024-02-15T02:42:01;742.07;;;710.93;;
1785;SDS011;890;48.158;11.540;2024-02-15T02:44:26;719.17;;;688.87;;
1785;SDS011;890;48.158;11.540;2024-02-15T02:46:52;699.33;;;670.53;;
1785;SDS011;890;48.158;11.540;2024-02-15T02:49:18;702.63;;;673.43;;
1785;SDS011;890;48.158;11.540;2024-02-15T02:51:43;665.03;;;636.50;;
1785;SDS011;890;48.158;11.540;2024-02-15T02:54:09;615.67;;;589.43;;
1785;SDS011;890;48.158;11.540;2024-02-15T02:56:36;808.33;;;773.13;;
1785;SDS011;890;48.158;11.540;2024-02-15T02:59:01;772.77;;;739.47;;
1785;SDS011;890;48.158;11.540;2024-02-15T03:01:28;791.97;;;757.70;;
1785;SDS011;890;48.158;11.540;2024-02-15T03:03:54;568.67;;;545.47;;
1785;SDS011;890;48.158;11.540;2024-02-15T03:06:21;385.50;;;371.10;;
1785;SDS011;890;48.158;11.540;2024-02-15T03:08:49;416.10;;;399.73;;
1785;SDS011;890;48.158;11.540;2024-02-15T03:11:19;542.10;;;519.57;;
1785;SDS011;890;48.158;11.540;2024-02-15T03:13:45;645.37;;;619.37;;
1785;SDS011;890;48.158;11.540;2024-02-15T03:16:11;611.83;;;587.53;;
1785;SDS011;890;48.158;11.540;2024-02-15T03:18:36;648.67;;;622.43;;
1785;SDS011;890;48.158;11.540;2024-02-15T03:21:02;653.33;;;625.73;;
1785;SDS011;890;48.158;11.540;2024-02-15T03:23:29;707.27;;;678.43;;
1785;SDS011;890;48.158;11.540;2024-02-15T03:25:55;791.10;;;757.50;;
1785;SDS011;890;48.158;11.540;2024-02-15T03:28:21;775.20;;;742.30;;
1785;SDS011;890;48.158;11.540;2024-02-15T03:30:49;777.47;;;744.63;;
1785;SDS011;890;48.158;11.540;2024-02-15T03:33:15;830.67;;;795.23;;
1785;SDS011;890;48.158;11.540;2024-02-15T03:35:41;852.90;;;814.43;;
1785;SDS011;890;48.158;11.540;2024-02-15T03:38:07;893.00;;;845.10;;
1785;SDS011;890;48.158;11.540;2024-02-15T03:40:32;891.97;;;845.50;;
1785;SDS011;890;48.158;11.540;2024-02-15T03:42:58;896.03;;;853.30;;
1785;SDS011;890;48.158;11.540;2024-02-15T03:45:24;804.50;;;766.10;;
1785;SDS011;890;48.158;11.540;2024-02-15T03:47:51;811.60;;;775.67;;
1785;SDS011;890;48.158;11.540;2024-02-15T03:50:17;846.17;;;808.03;;
1785;SDS011;890;48.158;11.540;2024-02-15T03:52:43;930.43;;;887.13;;
1785;SDS011;890;48.158;11.540;2024-02-15T03:55:10;837.30;;;798.63;;
1785;SDS011;890;48.158;11.540;2024-02-15T03:57:39;870.40;;;827.17;;
1785;SDS011;890;48.158;11.540;2024-02-15T04:00:11;831.03;;;788.17;;
1785;SDS011;890;48.158;11.540;2024-02-15T04:02:45;862.60;;;818.60;;
1785;SDS011;890;48.158;11.540;2024-02-15T04:05:13;862.83;;;824.50;;
1785;SDS011;890;48.158;11.540;2024-02-15T04:07:39;822.80;;;785.43;;
1785;SDS011;890;48.158;11.540;2024-02-15T04:10:05;790.40;;;755.83;;
1785;SDS011;890;48.158;11.540;2024-02-15T04:12:31;843.60;;;804.93;;
1785;SDS011;890;48.158;11.540;2024-02-15T04:14:58;896.03;;;855.37;;
1785;SDS011;890;48.158;11.540;2024-02-15T04:17:32;842.17;;;797.07;;
1785;SDS011;890;48.158;11.540;2024-02-15T04:20:00;499.27;;;479.50;;
1785;SDS011;890;48.158;11.540;2024-02-15T04:22:26;486.83;;;467.03;;
1785;SDS011;890;48.158;11.540;2024-02-15T04:24:51;484.53;;;464.73;;
1785;SDS011;890;48.158;11.540;2024-02-15T04:27:17;389.33;;;374.23;;
1785;SDS011;890;48.158;11.540;2024-02-15T04:29:45;295.90;;;284.17;;
1785;SDS011;890;48.158;11.540;2024-02-15T04:32:11;244.33;;;234.67;;
1785;SDS011;890;48.158;11.540;2024-02-15T04:34:38;330.67;;;318.40;;
1785;SDS011;890;48.158;11.540;2024-02-15T04:37:05;399.23;;;383.07;;
1785;SDS011;890;48.158;11.540;2024-02-15T04:39:36;445.00;;;427.37;;
1785;SDS011;890;48.158;11.540;2024-02-15T04:42:02;493.43;;;472.50;;
1785;SDS011;890;48.158;11.540;2024-02-15T04:44:32;504.67;;;483.67;;
1785;SDS011;890;48.158;11.540;2024-02-15T04:47:00;518.70;;;497.40;;
1785;SDS011;890;48.158;11.540;2024-02-15T04:49:29;514.97;;;492.77;;
1785;SDS011;890;48.158;11.540;2024-02-15T04:51:55;483.63;;;463.97;;
1785;SDS011;890;48.158;11.540;2024-02-15T04:54:22;363.10;;;347.90;;
1785;SDS011;890;48.158;11.540;2024-02-15T04:56:48;305.93;;;294.23;;
1785;SDS011;890;48.158;11.540;2024-02-15T04:59:15;307.50;;;295.47;;
1785;SDS011;890;48.158;11.540;2024-02-15T05:01:41;336.00;;;322.23;;
1785;SDS011;890;48.158;11.540;2024-02-15T05:04:10;337.80;;;324.60;;
1785;SDS011;890;48.158;11.540;2024-02-15T05:06:37;307.40;;;295.50;;
1785;SDS011;890;48.158;11.540;2024-02-15T05:09:04;316.30;;;302.47;;
1785;SDS011;890;48.158;11.540;2024-02-15T05:11:32;350.00;;;335.43;;
1785;SDS011;890;48.158;11.540;2024-02-15T05:14:02;311.83;;;298.70;;
1785;SDS011;890;48.158;11.540;2024-02-15T05:16:30;316.10;;;303.10;;
1785;SDS011;890;48.158;11.540;2024-02-15T05:18:56;321.07;;;307.27;;
1785;SDS011;890;48.158;11.540;2024-02-15T05:21:22;19.43;;;18.13;;
1785;SDS011;890;48.158;11.540;2024-02-15T05:23:48;354.27;;;339.40;;
1785;SDS011;890;48.158;11.540;2024-02-15T05:26:13;354.30;;;339.87;;
1785;SDS011;890;48.158;11.540;2024-02-15T05:28:41;323.43;;;309.97;;
1785;SDS011;890;48.158;11.540;2024-02-15T05:31:27;355.33;;;340.57;;
1785;SDS011;890;48.158;11.540;2024-02-15T05:33:53;281.67;;;270.13;;
1785;SDS011;890;48.158;11.540;2024-02-15T05:36:22;214.07;;;205.10;;
1785;SDS011;890;48.158;11.540;2024-02-15T05:38:50;297.73;;;284.23;;
1785;SDS011;890;48.158;11.540;2024-02-15T05:41:17;374.60;;;358.03;;
1785;SDS011;890;48.158;11.540;2024-02-15T05:43:44;351.40;;;337.00;;
1785;SDS011;890;48.158;11.540;2024-02-15T05:46:11;121.50;;;116.33;;
1785;SDS011;890;48.158;11.540;2024-02-15T05:48:38;127.10;;;121.20;;
1785;SDS011;890;48.158;11.540;2024-02-15T05:51:04;159.43;;;151.53;;
1785;SDS011;890;48.158;11.540;2024-02-15T05:53:31;261.57;;;251.40;;
1785;SDS011;890;48.158;11.540;2024-02-15T05:56:05;323.90;;;310.80;;
1785;SDS011;890;48.158;11.540;2024-02-15T05:58:32;197.93;;;190.00;;
1785;SDS011;890;48.158;11.540;2024-02-15T06:00:58;265.23;;;254.07;;
1785;SDS011;890;48.158;11.540;2024-02-15T06:03:29;245.33;;;234.67;;
1785;SDS011;890;48.158;11.540;2024-02-15T06:05:58;273.60;;;261.70;;
1785;SDS011;890;48.158;11.540;2024-02-15T06:08:31;402.80;;;383.37;;
1785;SDS011;890;48.158;11.540;2024-02-15T06:10:57;381.03;;;363.57;;
1785;SDS011;890;48.158;11.540;2024-02-15T06:13:23;293.73;;;280.93;;
1785;SDS011;890;48.158;11.540;2024-02-15T06:15:50;311.47;;;296.13;;
1785;SDS011;890;48.158;11.540;2024-02-15T06:18:25;311.67;;;297.17;;
1785;SDS011;890;48.158;11.540;2024-02-15T06:20:56;418.87;;;399.07;;
1785;SDS011;890;48.158;11.540;2024-02-15T06:23:23;396.37;;;376.87;;
1785;SDS011;890;48.158;11.540;2024-02-15T06:25:51;481.77;;;458.30;;
1785;SDS011;890;48.158;11.540;2024-02-15T06:28:21;581.63;;;554.20;;
1785;SDS011;890;48.158;11.540;2024-02-15T06:31:09;581.17;;;552.90;;
1785;SDS011;890;48.158;11.540;2024-02-15T06:33:54;572.07;;;543.47;;
1785;SDS011;890;48.158;11.540;2024-02-15T06:36:40;577.87;;;550.47;;
1785;SDS011;890;48.158;11.540;2024-02-15T06:39:24;602.17;;;571.97;;
1785;SDS011;890;48.158;11.540;2024-02-15T06:42:12;597.10;;;569.37;;
1785;SDS011;890;48.158;11.540;2024-02-15T06:44:45;666.73;;;635.33;;
1785;SDS011;890;48.158;11.540;2024-02-15T06:47:11;680.07;;;646.90;;
1785;SDS011;890;48.158;11.540;2024-02-15T06:49:40;632.30;;;603.53;;
1785;SDS011;890;48.158;11.540;2024-02-15T06:52:07;640.27;;;613.67;;
1785;SDS011;890;48.158;11.540;2024-02-15T06:54:36;716.53;;;685.90;;
1785;SDS011;890;48.158;11.540;2024-02-15T06:57:03;722.03;;;690.53;;
1785;SDS011;890;48.158;11.540;2024-02-15T06:59:29;685.50;;;656.23;;
1785;SDS011;890;48.158;11.540;2024-02-15T07:01:57;717.27;;;684.73;;
1785;SDS011;890;48.158;11.540;2024-02-15T07:04:23;741.97;;;710.47;;
1785;SDS011;890;48.158;11.540;2024-02-15T07:06:50;708.33;;;677.63;;
1785;SDS011;890;48.158;11.540;2024-02-15T07:09:19;912.17;;;859.80;;
1785;SDS011;890;48.158;11.540;2024-02-15T07:11:46;753.70;;;716.20;;
1785;SDS011;890;48.158;11.540;2024-02-15T07:14:13;568.00;;;545.17;;
1785;SDS011;890;48.158;11.540;2024-02-15T07:16:40;916.93;;;871.03;;
1785;SDS011;890;48.158;11.540;2024-02-15T07:19:10;941.17;;;888.57;;
1785;SDS011;890;48.158;11.540;2024-02-15T07:21:35;861.13;;;814.40;;
1785;SDS011;890;48.158;11.540;2024-02-15T07:24:02;865.93;;;819.13;;
1785;SDS011;890;48.158;11.540;2024-02-15T07:26:29;874.63;;;827.73;;
1785;SDS011;890;48.158;11.540;2024-02-15T07:28:55;858.03;;;812.80;;
1785;SDS011;890;48.158;11.540;2024-02-15T07:31:22;862.33;;;806.97;;
1785;SDS011;890;48.158;11.540;2024-02-15T07:33:48;872.90;;;816.70;;
1785;SDS011;890;48.158;11.540;2024-02-15T07:36:19;866.57;;;810.80;;
1785;SDS011;890;48.158;11.540;2024-02-15T07:38:52;594.97;;;545.30;;
1785;SDS011;890;48.158;11.540;2024-02-15T07:41:18;621.40;;;571.60;;
1785;SDS011;890;48.158;11.540;2024-02-15T07:43:47;607.85;;;559.55;;
1785;SDS011;890;48.158;11.540;2024-02-15T07:46:13;600.90;;;552.90;;
1785;SDS011;890;48.158;11.540;2024-02-15T07:48:41;609.35;;;561.38;;
1785;SDS011;890;48.158;11.540;2024-02-15T07:51:10;934.20;;;873.90;;
1785;SDS011;890;48.158;11.540;2024-02-15T07:53:43;939.60;;;880.43;;
1785;SDS011;890;48.158;11.540;2024-02-15T07:56:09;944.47;;;882.57;;
1785;SDS011;890;48.158;11.540;2024-02-15T07:58:45;974.87;;;911.60;;
1785;SDS011;890;48.158;11.540;2024-02-15T08:01:13;943.07;;;881.80;;
1785;SDS011;890;48.158;11.540;2024-02-15T08:03:39;903.77;;;847.20;;
1785;SDS011;890;48.158;11.540;2024-02-15T08:06:11;997.87;;;938.90;;
1785;SDS011;890;48.158;11.540;2024-02-15T08:08:44;940.97;;;885.00;;
1785;SDS011;890;48.158;11.540;2024-02-15T08:11:12;920.00;;;864.20;;
1785;SDS011;890;48.158;11.540;2024-02-15T08:13:43;954.83;;;896.07;;
1785;SDS011;890;48.158;11.540;2024-02-15T08:16:10;1045.63;;;980.23;;
1785;SDS011;890;48.158;11.540;2024-02-15T08:18:37;965.67;;;904.33;;
1785;SDS011;890;48.158;11.540;2024-02-15T08:21:04;952.63;;;892.43;;
1785;SDS011;890;48.158;11.540;2024-02-15T08:23:30;1012.20;;;946.90;;
1785;SDS011;890;48.158;11.540;2024-02-15T08:25:57;943.47;;;881.17;;
1785;SDS011;890;48.158;11.540;2024-02-15T08:28:23;956.27;;;896.33;;
1785;SDS011;890;48.158;11.540;2024-02-15T08:30:48;956.30;;;896.73;;
1785;SDS011;890;48.158;11.540;2024-02-15T08:33:14;957.33;;;898.40;;
1785;SDS011;890;48.158;11.540;2024-02-15T08:35:39;953.97;;;895.97;;
1785;SDS011;890;48.158;11.540;2024-02-15T08:38:06;970.23;;;908.67;;
1785;SDS011;890;48.158;11.540;2024-02-15T08:40:35;978.27;;;917.10;;
1785;SDS011;890;48.158;11.540;2024-02-15T08:43:00;1036.53;;;970.93;;
1785;SDS011;890;48.158;11.540;2024-02-15T08:45:26;762.60;;;709.53;;
1785;SDS011;890;48.158;11.540;2024-02-15T08:47:51;663.13;;;614.47;;
1785;SDS011;890;48.158;11.540;2024-02-15T08:50:18;697.88;;;648.45;;
1785;SDS011;890;48.158;11.540;2024-02-15T08:52:46;713.08;;;662.67;;
1785;SDS011;890;48.158;11.540;2024-02-15T08:55:12;776.00;;;724.47;;
1785;SDS011;890;48.158;11.540;2024-02-15T08:57:42;856.13;;;799.67;;
1785;SDS011;890;48.158;11.540;2024-02-15T09:00:09;956.17;;;894.87;;
1785;SDS011;890;48.158;11.540;2024-02-15T09:02:41;1088.20;;;999.90;;
1785;SDS011;890;48.158;11.540;2024-02-15T09:05:10;1136.60;;;999.90;;
1785;SDS011;890;48.158;11.540;2024-02-15T09:07:39;1194.40;;;999.90;;
1785;SDS011;890;48.158;11.540;2024-02-15T09:10:09;1215.93;;;999.90;;
1785;SDS011;890;48.158;11.540;2024-02-15T09:12:38;1211.73;;;999.90;;
1785;SDS011;890;48.158;11.540;2024-02-15T09:15:05;1161.30;;;999.90;;
1785;SDS011;890;48.158;11.540;2024-02-15T09:17:32;1194.73;;;999.90;;
1785;SDS011;890;48.158;11.540;2024-02-15T09:20:04;519.93;;;471.13;;
1785;SDS011;890;48.158;11.540;2024-02-15T09:22:34;505.73;;;457.50;;
1785;SDS011;890;48.158;11.540;2024-02-15T09:25:01;445.97;;;398.67;;
1785;SDS011;890;48.158;11.540;2024-02-15T09:27:27;387.17;;;297.03;;
1785;SDS011;890;48.158;11.540;2024-02-15T09:29:53;400.27;;;321.63;;
1785;SDS011;890;48.158;11.540;2024-02-15T09:32:20;403.63;;;340.07;;
1785;SDS011;890;48.158;11.540;2024-02-15T09:34:47;462.20;;;415.77;;
1785;SDS011;890;48.158;11.540;2024-02-15T09:37:13;521.13;;;473.27;;
1785;SDS011;890;48.158;11.540;2024-02-15T09:39:39;489.77;;;441.47;;
1785;SDS011;890;48.158;11.540;2024-02-15T09:42:04;500.43;;;453.17;;
1785;SDS011;890;48.158;11.540;2024-02-15T09:44:30;733.00;;;680.67;;
1785;SDS011;890;48.158;11.540;2024-02-15T09:47:02;701.07;;;647.57;;
1785;SDS011;890;48.158;11.540;2024-02-15T09:49:33;1003.80;;;940.20;;
1785;SDS011;890;48.158;11.540;2024-02-15T09:52:07;567.10;;;518.83;;
1785;SDS011;890;48.158;11.540;2024-02-15T09:54:40;760.97;;;705.10;;
1785;SDS011;890;48.158;11.540;2024-02-15T09:57:08;481.43;;;434.27;;
1785;SDS011;890;48.158;11.540;2024-02-15T09:59:35;508.23;;;460.40;;
1785;SDS011;890;48.158;11.540;2024-02-15T10:02:01;483.47;;;436.00;;
1785;SDS011;890;48.158;11.540;2024-02-15T10:04:28;481.67;;;434.97;;
1785;SDS011;890;48.158;11.540;2024-02-15T10:06:54;536.80;;;488.83;;
1785;SDS011;890;48.158;11.540;2024-02-15T10:11:53;585.27;;;537.83;;
1785;SDS011;890;48.158;11.540;2024-02-15T10:14:21;569.63;;;525.10;;
1785;SDS011;890;48.158;11.540;2024-02-15T10:16:47;546.83;;;498.70;;
1785;SDS011;890;48.158;11.540;2024-02-15T10:19:13;454.13;;;408.70;;
1785;SDS011;890;48.158;11.540;2024-02-15T10:21:40;419.40;;;375.30;;
1785;SDS011;890;48.158;11.540;2024-02-15T10:24:07;448.70;;;403.77;;
1785;SDS011;890;48.158;11.540;2024-02-15T10:26:34;512.33;;;465.50;;
1785;SDS011;890;48.158;11.540;2024-02-15T10:29:10;527.37;;;480.33;;
1785;SDS011;890;48.158;11.540;2024-02-15T10:31:40;587.73;;;539.50;;
1785;SDS011;890;48.158;11.540;2024-02-15T10:34:17;561.63;;;514.37;;
1785;SDS011;890;48.158;11.540;2024-02-15T10:36:46;638.23;;;589.10;;
1785;SDS011;890;48.158;11.540;2024-02-15T10:39:12;572.73;;;525.50;;
1785;SDS011;890;48.158;11.540;2024-02-15T10:41:48;629.53;;;579.47;;
1785;SDS011;890;48.158;11.540;2024-02-15T10:44:16;664.97;;;613.87;;
1785;SDS011;890;48.158;11.540;2024-02-15T10:46:44;615.00;;;566.70;;
1785;SDS011;890;48.158;11.540;2024-02-15T10:49:20;598.17;;;549.17;;
1785;SDS011;890;48.158;11.540;2024-02-15T10:51:57;573.77;;;525.77;;
1785;SDS011;890;48.158;11.540;2024-02-15T10:57:40;541.57;;;492.93;;
1785;SDS011;890;48.158;11.540;2024-02-15T11:00:11;560.67;;;511.90;;
1785;SDS011;890;48.158;11.540;2024-02-15T11:03:01;506.07;;;457.87;;
1785;SDS011;890;48.158;11.540;2024-02-15T11:05:31;523.37;;;475.57;;
1785;SDS011;890;48.158;11.540;2024-02-15T11:07:59;593.13;;;543.43;;
1785;SDS011;890;48.158;11.540;2024-02-15T11:10:33;943.37;;;883.40;;
1785;SDS011;890;48.158;11.540;2024-02-15T11:13:00;1058.87;;;991.83;;
1785;SDS011;890;48.158;11.540;2024-02-15T11:15:44;1094.27;;;999.90;;
1785;SDS011;890;48.158;11.540;2024-02-15T11:18:23;1037.77;;;972.27;;
1785;SDS011;890;48.158;11.540;2024-02-15T11:21:13;955.23;;;896.43;;
1785;SDS011;890;48.158;11.540;2024-02-15T11:26:50;1118.53;;;999.90;;
1785;SDS011;890;48.158;11.540;2024-02-15T11:35:15;1199.93;;;999.90;;
1785;SDS011;890;48.158;11.540;2024-02-15T11:40:23;1195.80;;;999.90;;
1785;SDS011;890;48.158;11.540;2024-02-15T11:42:54;1209.93;;;999.90;;
1785;SDS011;890;48.158;11.540;2024-02-15T11:45:23;1231.13;;;999.90;;
1785;SDS011;890;48.158;11.540;2024-02-15T11:47:51;1232.67;;;999.90;;
1785;SDS011;890;48.158;11.540;2024-02-15T11:50:21;1233.63;;;999.90;;
1785;SDS011;890;48.158;11.540;2024-02-15T11:52:47;1242.17;;;999.90;;
1785;SDS011;890;48.158;11.540;2024-02-15T11:55:14;1249.40;;;999.90;;
1785;SDS011;890;48.158;11.540;2024-02-15T11:57:59;1244.60;;;999.90;;
1785;SDS011;890;48.158;11.540;2024-02-15T12:00:30;1254.70;;;999.90;;
1785;SDS011;890;48.158;11.540;2024-02-15T12:03:15;1246.30;;;999.90;;
1785;SDS011;890;48.158;11.540;2024-02-15T12:06:00;1249.00;;;999.90;;
1785;SDS011;890;48.158;11.540;2024-02-15T12:08:45;1232.40;;;999.90;;
1785;SDS011;890;48.158;11.540;2024-02-15T12:11:33;1205.27;;;999.90;;
1785;SDS011;890;48.158;11.540;2024-02-15T12:14:17;1263.63;;;999.90;;
1785;SDS011;890;48.158;11.540;2024-02-15T12:19:47;1196.43;;;999.90;;
1785;SDS011;890;48.158;11.540;2024-02-15T12:22:17;1215.37;;;999.90;;
1785;SDS011;890;48.158;11.540;2024-02-15T12:24:52;1206.77;;;999.90;;
1785;SDS011;890;48.158;11.540;2024-02-15T12:27:36;1184.50;;;999.90;;
1785;SDS011;890;48.158;11.540;2024-02-15T12:30:04;1185.97;;;999.90;;
1785;SDS011;890;48.158;11.540;2024-02-15T12:32:32;1185.50;;;999.90;;
1785;SDS011;890;48.158;11.540;2024-02-15T12:35:13;1176.50;;;999.90;;
1785;SDS011;890;48.158;11.540;2024-02-15T12:37:47;1172.37;;;999.90;;
1785;SDS011;890;48.158;11.540;2024-02-15T12:40:19;1128.57;;;999.90;;
1785;SDS011;890;48.158;11.540;2024-02-15T12:42:47;1154.30;;;999.90;;
1785;SDS011;890;48.158;11.540;2024-02-15T12:45:20;1155.00;;;999.90;;
1785;SDS011;890;48.158;11.540;2024-02-15T12:47:55;1178.17;;;999.90;;
1785;SDS011;890;48.158;11.540;2024-02-15T12:50:22;1192.40;;;999.90;;
1785;SDS011;890;48.158;11.540;2024-02-15T12:52:52;1170.53;;;999.90;;
1785;SDS011;890;48.158;11.540;2024-02-15T12:55:21;1160.57;;;999.90;;
1785;SDS011;890;48.158;11.540;2024-02-15T12:57:53;1151.47;;;999.90;;
1785;SDS011;890;48.158;11.540;2024-02-15T13:00:21;1134.17;;;999.90;;
1785;SDS011;890;48.158;11.540;2024-02-15T13:02:53;1170.47;;;999.90;;
1785;SDS011;890;48.158;11.540;2024-02-15T13:05:21;1156.83;;;999.90;;
1785;SDS011;890;48.158;11.540;2024-02-15T13:07:48;1127.40;;;999.90;;
1785;SDS011;890;48.158;11.540;2024-02-15T13:10:15;1125.33;;;999.90;;
1785;SDS011;890;48.158;11.540;2024-02-15T13:12:44;1132.33;;;999.90;;
1785;SDS011;890;48.158;11.540;2024-02-15T13:15:14;1126.97;;;999.90;;
1785;SDS011;890;48.158;11.540;2024-02-15T13:17:45;1119.40;;;999.90;;
1785;SDS011;890;48.158;11.540;2024-02-15T13:20:13;1128.03;;;999.90;;
1785;SDS011;890;48.158;11.540;2024-02-15T13:22:41;1128.67;;;999.90;;
1785;SDS011;890;48.158;11.540;2024-02-15T13:25:08;1116.43;;;999.90;;
1785;SDS011;890;48.158;11.540;2024-02-15T13:27:38;1134.00;;;999.90;;
1785;SDS011;890;48.158;11.540;2024-02-15T13:30:04;1115.90;;;999.90;;
1785;SDS011;890;48.158;11.540;2024-02-15T13:32:37;1114.50;;;999.90;;
1785;SDS011;890;48.158;11.540;2024-02-15T13:35:06;1117.80;;;999.90;;
1785;SDS011;890;48.158;11.540;2024-02-15T13:37:48;1125.47;;;999.90;;
1785;SDS011;890;48.158;11.540;2024-02-15T13:40:14;1130.43;;;999.90;;
1785;SDS011;890;48.158;11.540;2024-02-15T13:42:44;1122.87;;;999.90;;
1785;SDS011;890;48.158;11.540;2024-02-15T13:45:15;1133.70;;;999.90;;
1785;SDS011;890;48.158;11.540;2024-02-15T13:47:43;1134.57;;;999.90;;
1785;SDS011;890;48.158;11.540;2024-02-15T13:50:11;1128.87;;;999.90;;
1785;SDS011;890;48.158;11.540;2024-02-15T13:52:39;1102.57;;;999.90;;
1785;SDS011;890;48.158;11.540;2024-02-15T13:55:09;1108.80;;;999.90;;
1785;SDS011;890;48.158;11.540;2024-02-15T13:57:43;1095.07;;;999.90;;
1785;SDS011;890;48.158;11.540;2024-02-15T14:00:16;1082.30;;;999.90;;
1785;SDS011;890;48.158;11.540;2024-02-15T14:02:58;1076.57;;;999.90;;
1785;SDS011;890;48.158;11.540;2024-02-15T14:05:26;1097.60;;;999.90;;
1785;SDS011;890;48.158;11.540;2024-02-15T14:07:58;1090.90;;;999.90;;
1785;SDS011;890;48.158;11.540;2024-02-15T14:10:25;1084.50;;;999.90;;
1785;SDS011;890;48.158;11.540;2024-02-15T14:12:53;1089.73;;;999.90;;
1785;SDS011;890;48.158;11.540;2024-02-15T14:15:29;1080.20;;;999.90;;
1785;SDS011;890;48.158;11.540;2024-02-15T14:17:54;1078.37;;;999.90;;
1785;SDS011;890;48.158;11.540;2024-02-15T14:20:26;1096.33;;;999.90;;
1785;SDS011;890;48.158;11.540;2024-02-15T14:22:53;1044.13;;;980.13;;
1785;SDS011;890;48.158;11.540;2024-02-15T14:25:22;1047.90;;;984.40;;
1785;SDS011;890;48.158;11.540;2024-02-15T14:27:48;1023.73;;;961.47;;
1785;SDS011;890;48.158;11.540;2024-02-15T14:30:14;1034.13;;;971.37;;
1785;SDS011;890;48.158;11.540;2024-02-15T14:32:58;1040.07;;;976.63;;
1785;SDS011;890;48.158;11.540;2024-02-15T14:35:33;1035.73;;;972.33;;
1785;SDS011;890;48.158;11.540;2024-02-15T14:38:03;1033.03;;;970.77;;
1785;SDS011;890;48.158;11.540;2024-02-15T14:40:35;1059.60;;;994.73;;
1785;SDS011;890;48.158;11.540;2024-02-15T14:43:02;1091.20;;;999.90;;
1785;SDS011;890;48.158;11.540;2024-02-15T14:45:34;1083.23;;;999.90;;
1785;SDS011;890;48.158;11.540;2024-02-15T14:48:03;1110.57;;;999.90;;
1785;SDS011;890;48.158;11.540;2024-02-15T14:50:29;1093.83;;;999.90;;
1785;SDS011;890;48.158;11.540;2024-02-15T14:52:55;1057.30;;;992.17;;